Sklinnabanken — LJQM — position and weather

sailwx.info

Track history (hours):
 
Tides and Currents Weather Stations Pressure Air Temp Water Temp Dewpoint Dewpoint Depression Visibility Wind Speed Wind Dir Waves Ship Positions

Sklinnabanken

Last reported at 2014-Jun-28 17:17 UTC. Time now 2014-Aug-31 06:39 UTC.
Position N 64°47' E 011°04'.
Warning: this ship's position is months out of date.

Length 28 m; draft 6 m.

Type: Fishing. MMSI: 259648000.

Date/timePositionNaut miles runAvg speedWind from/ knotsBaromVisibWave heightAir tempDewpointWater temp
2014-Jun-28 17:17N 64°47' E 011°04'7 9.1
2014-Jun-28 16:33N 64°51' E 011°15'9 9.2
2014-Jun-28 15:33N 64°57' E 011°31'72 6.9
2014-Jun-28 05:07N 66°04' E 012°38'6 9.1
2014-Jun-28 04:30N 66°08' E 012°47'9 9.1
2014-Jun-28 03:30N 66°17' E 012°55'8 8.8
2014-Jun-28 02:33N 66°25' E 012°59'9 7.9
2014-Jun-28 01:22N 66°34' E 013°04'9 8.6
2014-Jun-28 00:18N 66°43' E 013°10'213 7.7
2014-Jun-26 20:32N 69°34' E 018°49'8 8.3
2014-Jun-26 19:33N 69°41' E 019°01'94 6.2
2014-Jun-26 04:25N 70°31' E 022°57'7 8.1
2014-Jun-26 03:30N 70°36' E 023°14'0 0.4
2014-Jun-26 02:19N 70°36' E 023°12'0 0.0
2014-Jun-26 00:04N 70°36' E 023°12'0 0.4
2014-Jun-25 23:33N 70°36' E 023°12'0 0.1
2014-Jun-25 22:31N 70°36' E 023°12'0 0.1
2014-Jun-25 21:26N 70°36' E 023°12'0 0.3
2014-Jun-25 20:33N 70°36' E 023°13'0 0.2
2014-Jun-25 19:33N 70°36' E 023°12'7 6.7
2014-Jun-25 18:33N 70°41' E 023°25'  
2014-Jun-20 03:15N 70°44' E 023°36'5 7.7
2014-Jun-20 02:33N 70°40' E 023°25'6 5.5
2014-Jun-20 01:28N 70°36' E 023°12'0 0.2
2014-Jun-20 00:33N 70°36' E 023°13'0 0.1
2014-Jun-19 23:20N 70°36' E 023°13'1 0.8
2014-Jun-19 22:33N 70°36' E 023°12'0 0.2
2014-Jun-19 21:17N 70°36' E 023°12'0 0.2
2014-Jun-19 20:31N 70°36' E 023°12'0 0.5
2014-Jun-19 19:33N 70°36' E 023°14'1 0.6
2014-Jun-19 18:33N 70°36' E 023°12'0 0.3
2014-Jun-19 17:32N 70°36' E 023°13'1 0.5
2014-Jun-19 16:26N 70°36' E 023°12'0 0.5
2014-Jun-19 15:23N 70°36' E 023°13'0 0.4
2014-Jun-19 14:26N 70°36' E 023°12'0 0.1
2014-Jun-19 13:33N 70°36' E 023°12'1 0.6
2014-Jun-19 12:29N 70°36' E 023°13'0 0.4
2014-Jun-19 11:30N 70°36' E 023°13'0 0.2
2014-Jun-19 10:33N 70°36' E 023°12'6 5.5
2014-Jun-19 09:31N 70°40' E 023°23'0 0.3
2014-Jun-19 08:33N 70°40' E 023°23'0 0.3
2014-Jun-19 07:33N 70°40' E 023°23'2 1.5
2014-Jun-19 06:32N 70°39' E 023°21'4 3.3
2014-Jun-19 05:12N 70°36' E 023°12'5 5.4
2014-Jun-19 04:13N 70°40' E 023°19'1 2.0
2014-Jun-19 03:33N 70°40' E 023°22'6 5.6
2014-Jun-19 02:33N 70°35' E 023°15'0 0.5
2014-Jun-19 01:32N 70°35' E 023°14'0 0.2
2014-Jun-19 00:32N 70°35' E 023°14'1 0.5
2014-Jun-18 23:32N 70°35' E 023°14'1 0.6
2014-Jun-18 22:31N 70°36' E 023°13'0 0.3
2014-Jun-18 21:31N 70°36' E 023°12'0 0.3
2014-Jun-18 20:31N 70°36' E 023°13'0 0.4
2014-Jun-18 19:32N 70°36' E 023°12'1 1.3
2014-Jun-18 18:29N 70°37' E 023°13'1 0.7
2014-Jun-18 17:32N 70°36' E 023°12'  
Track history (hours):
 
Tides and Currents Weather Stations Pressure Air Temp Water Temp Dewpoint Dewpoint Depression Visibility Wind Speed Wind Dir Waves Ship Positions

Sklinnabanken

Last reported at 2014-Jun-28 17:17 UTC. Time now 2014-Aug-31 06:39 UTC.
Position N 64°47' E 011°04'.
Warning: this ship's position is months out of date.

Length 28 m; draft 6 m.

Type: Fishing. MMSI: 259648000.

Date/timePositionNaut miles runAvg speedWind from/ knotsBaromVisibWave heightAir tempDewpointWater temp
2014-Jun-28 17:17N 64°47' E 011°04'7 9.1
2014-Jun-28 16:33N 64°51' E 011°15'9 9.2
2014-Jun-28 15:33N 64°57' E 011°31'72 6.9
2014-Jun-28 05:07N 66°04' E 012°38'6 9.1
2014-Jun-28 04:30N 66°08' E 012°47'9 9.1
2014-Jun-28 03:30N 66°17' E 012°55'8 8.8
2014-Jun-28 02:33N 66°25' E 012°59'9 7.9
2014-Jun-28 01:22N 66°34' E 013°04'9 8.6
2014-Jun-28 00:18N 66°43' E 013°10'213 7.7
2014-Jun-26 20:32N 69°34' E 018°49'8 8.3
2014-Jun-26 19:33N 69°41' E 019°01'94 6.2
2014-Jun-26 04:25N 70°31' E 022°57'7 8.1
2014-Jun-26 03:30N 70°36' E 023°14'0 0.4
2014-Jun-26 02:19N 70°36' E 023°12'0 0.0
2014-Jun-26 00:04N 70°36' E 023°12'0 0.4
2014-Jun-25 23:33N 70°36' E 023°12'0 0.1
2014-Jun-25 22:31N 70°36' E 023°12'0 0.1
2014-Jun-25 21:26N 70°36' E 023°12'0 0.3
2014-Jun-25 20:33N 70°36' E 023°13'0 0.2
2014-Jun-25 19:33N 70°36' E 023°12'7 6.7
2014-Jun-25 18:33N 70°41' E 023°25'  
2014-Jun-20 03:15N 70°44' E 023°36'5 7.7
2014-Jun-20 02:33N 70°40' E 023°25'6 5.5
2014-Jun-20 01:28N 70°36' E 023°12'0 0.2
2014-Jun-20 00:33N 70°36' E 023°13'0 0.1
2014-Jun-19 23:20N 70°36' E 023°13'1 0.8
2014-Jun-19 22:33N 70°36' E 023°12'0 0.2
2014-Jun-19 21:17N 70°36' E 023°12'0 0.2
2014-Jun-19 20:31N 70°36' E 023°12'0 0.5
2014-Jun-19 19:33N 70°36' E 023°14'1 0.6
2014-Jun-19 18:33N 70°36' E 023°12'0 0.3
2014-Jun-19 17:32N 70°36' E 023°13'1 0.5
2014-Jun-19 16:26N 70°36' E 023°12'0 0.5
2014-Jun-19 15:23N 70°36' E 023°13'0 0.4
2014-Jun-19 14:26N 70°36' E 023°12'0 0.1
2014-Jun-19 13:33N 70°36' E 023°12'1 0.6
2014-Jun-19 12:29N 70°36' E 023°13'0 0.4
2014-Jun-19 11:30N 70°36' E 023°13'0 0.2
2014-Jun-19 10:33N 70°36' E 023°12'6 5.5
2014-Jun-19 09:31N 70°40' E 023°23'0 0.3
2014-Jun-19 08:33N 70°40' E 023°23'0 0.3
2014-Jun-19 07:33N 70°40' E 023°23'2 1.5
2014-Jun-19 06:32N 70°39' E 023°21'4 3.3
2014-Jun-19 05:12N 70°36' E 023°12'5 5.4
2014-Jun-19 04:13N 70°40' E 023°19'1 2.0
2014-Jun-19 03:33N 70°40' E 023°22'6 5.6
2014-Jun-19 02:33N 70°35' E 023°15'0 0.5
2014-Jun-19 01:32N 70°35' E 023°14'0 0.2
2014-Jun-19 00:32N 70°35' E 023°14'1 0.5
2014-Jun-18 23:32N 70°35' E 023°14'1 0.6
2014-Jun-18 22:31N 70°36' E 023°13'0 0.3
2014-Jun-18 21:31N 70°36' E 023°12'0 0.3
2014-Jun-18 20:31N 70°36' E 023°13'0 0.4
2014-Jun-18 19:32N 70°36' E 023°12'1 1.3
2014-Jun-18 18:29N 70°37' E 023°13'1 0.7
2014-Jun-18 17:32N 70°36' E 023°12'  

Dump ship's entire track history